createdAt,value
2022-08-16T00:03:46.268Z,8.80
2022-08-16T00:08:49.803Z,8.30
2022-08-16T00:13:55.506Z,8.47
2022-08-16T00:19:00.658Z,8.17
2022-08-16T00:24:04.586Z,9.00
2022-08-16T00:29:08.009Z,8.50
2022-08-16T00:34:17.983Z,9.77
2022-08-16T00:39:21.911Z,8.50
2022-08-16T00:44:31.807Z,8.87
2022-08-16T00:49:39.489Z,7.80
2022-08-16T00:54:48.031Z,8.23
2022-08-16T00:59:58.996Z,8.70
2022-08-16T01:05:09.643Z,8.33
2022-08-16T01:10:16.027Z,8.73
2022-08-16T01:15:20.325Z,9.30
2022-08-16T01:20:32.954Z,9.03
2022-08-16T01:25:41.958Z,9.80
2022-08-16T01:30:50.630Z,8.97
2022-08-16T01:35:58.269Z,9.70
2022-08-16T01:41:06.284Z,8.97
2022-08-16T01:46:37.767Z,9.23
2022-08-16T01:51:49.250Z,9.43
2022-08-16T01:56:59.644Z,10.47
2022-08-16T02:02:04.220Z,10.10
2022-08-16T02:07:27.503Z,10.50
2022-08-16T02:12:49.590Z,10.00
2022-08-16T02:17:55.563Z,10.57
2022-08-16T02:23:01.821Z,10.53
2022-08-16T02:28:10.396Z,10.10
2022-08-16T02:33:15.627Z,10.40
2022-08-16T02:38:19.544Z,10.67
2022-08-16T02:43:26.741Z,10.30
2022-08-16T02:48:32.094Z,9.60
2022-08-16T02:53:39.363Z,10.17
2022-08-16T02:58:45.281Z,11.00
2022-08-16T03:04:39.482Z,9.63
2022-08-16T03:09:14.971Z,9.10
2022-08-16T03:14:25.224Z,9.50
2022-08-16T03:19:45.787Z,9.00
2022-08-16T03:24:51.540Z,9.30
2022-08-16T03:29:56.041Z,8.37
2022-08-16T03:35:00.588Z,7.90
2022-08-16T03:40:04.804Z,8.47
2022-08-16T03:45:10.911Z,8.30
2022-08-16T03:50:26.234Z,8.03
2022-08-16T03:55:45.207Z,7.33
2022-08-16T04:00:56.846Z,7.10
2022-08-16T04:06:03.929Z,6.70
2022-08-16T04:11:07.597Z,6.20
2022-08-16T04:16:26.781Z,5.70
2022-08-16T04:21:35.235Z,5.83
2022-08-16T04:26:46.002Z,6.10
2022-08-16T04:31:56.488Z,6.30
2022-08-16T04:37:04.619Z,5.80
2022-08-16T04:42:11.741Z,5.33
2022-08-16T04:47:21.861Z,5.50
2022-08-16T04:52:34.608Z,5.80
2022-08-16T04:57:41.264Z,5.80
2022-08-16T05:02:47.381Z,4.83
2022-08-16T05:08:00.012Z,5.50
2022-08-16T05:13:08.474Z,5.57
2022-08-16T05:18:23.349Z,5.60
2022-08-16T05:23:32.427Z,5.90
2022-08-16T05:28:38.980Z,5.73
2022-08-16T05:33:45.657Z,5.30
2022-08-16T05:38:58.480Z,5.50
2022-08-16T05:44:05.414Z,6.27
2022-08-16T05:49:36.951Z,5.17
2022-08-16T05:54:47.613Z,4.90
2022-08-16T06:00:08.860Z,5.47
2022-08-16T06:05:16.931Z,5.30
2022-08-16T06:10:32.089Z,5.40
2022-08-16T06:15:38.015Z,5.30
2022-08-16T06:20:55.035Z,5.30
2022-08-16T06:25:59.173Z,5.20
2022-08-16T06:31:11.925Z,5.00
2022-08-16T06:36:21.737Z,4.87
2022-08-16T06:41:57.322Z,5.15
2022-08-16T06:47:53.633Z,5.07
2022-08-16T06:52:59.699Z,5.18
2022-08-16T06:58:08.480Z,5.22
2022-08-16T07:03:27.675Z,4.65
2022-08-16T07:08:33.900Z,5.00
2022-08-16T07:19:03.980Z,5.05
2022-08-16T07:24:30.356Z,5.47
2022-08-16T07:29:40.183Z,4.93
2022-08-16T07:34:48.143Z,4.70
2022-08-16T07:39:55.723Z,4.57
2022-08-16T07:44:59.160Z,4.63
2022-08-16T07:50:07.343Z,4.65
2022-08-16T07:55:15.217Z,4.90
2022-08-16T08:00:19.331Z,4.25
2022-08-16T08:05:35.955Z,4.90
2022-08-16T08:10:42.865Z,5.18
2022-08-16T08:15:52.901Z,4.78
2022-08-16T08:20:59.362Z,5.82
2022-08-16T08:26:17.731Z,5.00
2022-08-16T08:31:21.852Z,4.20
2022-08-16T08:36:33.097Z,4.60
2022-08-16T08:41:46.616Z,5.47
2022-08-16T08:47:00.250Z,4.72
2022-08-16T08:52:08.029Z,4.70
2022-08-16T08:57:14.531Z,5.07
2022-08-16T09:02:36.513Z,5.68
2022-08-16T09:08:00.413Z,5.25
2022-08-16T09:13:16.873Z,5.40
2022-08-16T09:18:26.757Z,5.50
2022-08-16T09:23:36.643Z,5.00
2022-08-16T09:29:16.018Z,4.93
2022-08-16T09:34:07.697Z,4.40
2022-08-16T09:39:16.175Z,4.88
2022-08-16T09:45:09.141Z,5.30
2022-08-16T09:49:44.653Z,4.95
2022-08-16T09:54:54.184Z,4.80
2022-08-16T10:00:00.845Z,4.60
2022-08-16T10:05:03.999Z,4.35
2022-08-16T10:10:11.557Z,4.63
2022-08-16T10:15:21.212Z,4.65
2022-08-16T10:20:26.911Z,5.90
2022-08-16T10:27:17.612Z,4.53
2022-08-16T10:30:58.984Z,4.97
2022-08-16T10:36:04.946Z,4.93
2022-08-16T10:41:10.332Z,4.60
2022-08-16T10:46:33.694Z,4.95
2022-08-16T10:52:01.277Z,4.18
2022-08-16T10:57:04.154Z,4.63
2022-08-16T11:02:57.880Z,4.00
2022-08-16T11:07:52.186Z,4.50
2022-08-16T11:12:56.454Z,5.15
2022-08-16T11:23:24.754Z,4.40
2022-08-16T11:33:52.600Z,4.47
2022-08-16T11:38:58.068Z,4.90
2022-08-16T11:44:02.123Z,4.60
2022-08-16T11:49:13.208Z,4.75
2022-08-16T11:54:21.268Z,4.45
2022-08-16T11:59:28.882Z,4.60
2022-08-16T12:04:35.057Z,5.00
2022-08-16T12:09:43.162Z,4.60
2022-08-16T12:14:46.562Z,4.82
2022-08-16T12:19:50.927Z,4.65
2022-08-16T12:24:54.156Z,4.68
2022-08-16T12:29:58.614Z,4.15
2022-08-16T12:35:03.243Z,5.10
2022-08-16T12:40:19.808Z,4.57
2022-08-16T12:45:30.360Z,5.10
2022-08-16T12:50:35.319Z,4.88
2022-08-16T12:55:41.875Z,4.57
2022-08-16T13:00:45.391Z,4.80
2022-08-16T13:05:55.409Z,4.75
2022-08-16T13:11:00.461Z,4.95
2022-08-16T13:16:15.516Z,5.07
2022-08-16T13:21:25.259Z,5.05
2022-08-16T13:26:30.115Z,4.60
2022-08-16T13:31:34.087Z,3.92
2022-08-16T13:36:48.463Z,4.22
2022-08-16T13:41:54.583Z,4.60
2022-08-16T13:46:57.792Z,4.45
2022-08-16T13:52:03.500Z,5.20
2022-08-16T13:57:07.388Z,4.75
2022-08-16T14:02:15.218Z,5.07
2022-08-16T14:07:24.661Z,4.53
2022-08-16T14:12:30.931Z,4.35
2022-08-16T14:18:15.549Z,4.60
2022-08-16T14:22:58.995Z,4.80
2022-08-16T14:28:02.370Z,4.28
2022-08-16T14:33:05.948Z,4.75
2022-08-16T14:38:11.139Z,4.80
2022-08-16T14:43:21.476Z,4.65
2022-08-16T14:48:25.867Z,4.45
2022-08-16T14:53:31.279Z,4.95
2022-08-16T14:58:38.186Z,4.07
2022-08-16T15:03:44.683Z,4.65
2022-08-16T15:08:49.394Z,4.00
2022-08-16T15:13:54.972Z,4.50
2022-08-16T15:18:59.448Z,4.40
2022-08-16T15:24:05.595Z,4.68
2022-08-16T15:29:09.418Z,4.60
2022-08-16T15:34:22.025Z,4.57
2022-08-16T15:39:39.366Z,4.53
2022-08-16T15:44:52.872Z,4.00
2022-08-16T15:49:57.956Z,4.97
2022-08-16T15:55:12.744Z,4.25
2022-08-16T16:00:27.012Z,4.35
2022-08-16T16:05:30.185Z,4.78
2022-08-16T16:10:37.345Z,5.70
2022-08-16T16:15:44.481Z,8.57
2022-08-16T16:20:49.806Z,4.85
2022-08-16T16:25:57.072Z,4.60
2022-08-16T16:31:01.598Z,4.45
2022-08-16T16:36:05.554Z,4.50
2022-08-16T16:41:11.676Z,4.07
2022-08-16T16:46:40.339Z,4.70
2022-08-16T16:51:44.854Z,5.07
2022-08-16T16:56:54.335Z,4.70
2022-08-16T17:02:38.849Z,4.32
2022-08-16T17:07:24.381Z,4.00
2022-08-16T17:12:47.025Z,5.03
2022-08-16T17:18:00.530Z,4.32
2022-08-16T17:23:05.481Z,4.53
2022-08-16T17:28:58.155Z,4.57
2022-08-16T17:33:37.262Z,4.60
2022-08-16T17:38:57.262Z,4.57
2022-08-16T17:44:01.982Z,4.60
2022-08-16T17:49:05.492Z,4.15
2022-08-16T17:54:08.602Z,4.70
2022-08-16T17:59:24.801Z,4.70
2022-08-16T18:04:48.251Z,4.38
2022-08-16T18:09:52.333Z,4.72
2022-08-16T18:14:59.971Z,4.50
2022-08-16T18:20:03.765Z,4.22
2022-08-16T18:25:07.942Z,4.72
2022-08-16T18:30:17.492Z,4.10
2022-08-16T18:35:22.558Z,4.47
2022-08-16T18:40:25.787Z,4.25
2022-08-16T18:45:35.493Z,4.43
2022-08-16T18:51:03.979Z,4.43
2022-08-16T18:56:05.268Z,4.40
2022-08-16T19:01:09.726Z,4.55
2022-08-16T19:06:15.180Z,4.90
2022-08-16T19:11:23.474Z,4.60
2022-08-16T19:16:28.012Z,4.70
2022-08-16T19:21:31.211Z,4.93
2022-08-16T19:26:34.260Z,4.70
2022-08-16T19:31:38.787Z,4.45
2022-08-16T19:36:41.961Z,4.78
2022-08-16T19:41:50.427Z,4.93
2022-08-16T19:46:58.934Z,4.97
2022-08-16T19:52:10.941Z,4.95
2022-08-16T19:57:15.246Z,5.88
2022-08-16T20:02:35.656Z,5.00
2022-08-16T20:07:39.038Z,5.05
2022-08-16T20:12:44.172Z,4.65
2022-08-16T20:18:12.487Z,5.22
2022-08-16T20:23:26.011Z,5.57
2022-08-16T20:28:40.699Z,5.35
2022-08-16T20:33:54.246Z,5.60
2022-08-16T20:39:00.078Z,5.40
2022-08-16T20:44:03.162Z,5.55
2022-08-16T20:49:09.024Z,5.50
2022-08-16T20:54:12.332Z,5.15
2022-08-16T20:59:18.187Z,5.35
2022-08-16T21:04:25.319Z,5.18
2022-08-16T21:09:33.489Z,5.95
2022-08-16T21:14:36.981Z,5.72
2022-08-16T21:19:41.808Z,6.10
2022-08-16T21:24:46.469Z,6.03
2022-08-16T21:29:51.770Z,5.90
2022-08-16T21:35:00.125Z,5.80
2022-08-16T21:40:03.659Z,6.18
2022-08-16T21:45:08.569Z,5.97
2022-08-16T21:50:15.276Z,5.97
2022-08-16T21:55:18.512Z,5.40
2022-08-16T22:00:21.615Z,5.57
2022-08-16T22:05:26.720Z,4.88
2022-08-16T22:11:07.764Z,5.55
2022-08-16T22:15:55.282Z,5.00
2022-08-16T22:20:59.627Z,4.75
2022-08-16T22:26:02.669Z,5.30
2022-08-16T22:31:05.865Z,5.40
2022-08-16T22:36:10.873Z,5.18
2022-08-16T22:41:13.937Z,5.25
2022-08-16T22:46:20.858Z,5.85
2022-08-16T22:51:26.958Z,5.32
2022-08-16T22:56:29.976Z,6.28
2022-08-16T23:01:33.126Z,5.90
2022-08-16T23:06:37.606Z,6.07
2022-08-16T23:11:40.601Z,6.15
2022-08-16T23:16:47.341Z,6.20
2022-08-16T23:21:52.906Z,6.00
2022-08-16T23:26:55.918Z,6.77
2022-08-16T23:32:10.783Z,6.10
2022-08-16T23:37:15.431Z,6.70
2022-08-16T23:42:18.464Z,6.72
2022-08-16T23:47:41.535Z,6.82
2022-08-16T23:53:04.199Z,7.20
2022-08-16T23:58:07.204Z,6.37
